X  Close Metar Aviation Weather Data     KSDL Scottsdale Airport
Temperature
63°F Temperature
34°F Dewpoint
34% Humidity



Wind
18 MPH
29 KM/H
8 M/S
16 KTS



140°
SE
Current Conditions

Partly Cloudy Partly Cloudy
Pressure 1011.22 (hPa) - 29.86 (inHg)
Visibility 8.1 (mile) - 13 (km)
Airport
Airport-code KSDL

Location: Scottsdale Airport
Distance: 14 (mi)

Metar:
KSDL 191253Z AUTO 14016G29KT 8SM FEW065 OVC085 17/01 A2986 RMK AO2 PK WND 13029/1251 PRESRR SLP094 T01670011 $

Time: 2021-01-19 05:53 MST